createdAt,value
2019-02-20T00:01:44.285Z,22.42
2019-02-20T00:04:13.158Z,30.92
2019-02-20T00:06:41.659Z,26.87
2019-02-20T00:09:10.099Z,22.67
2019-02-20T00:11:38.836Z,25.27
2019-02-20T00:14:07.558Z,26.17
2019-02-20T00:16:36.279Z,19.17
2019-02-20T00:19:05.051Z,24.77
2019-02-20T00:21:33.827Z,31.37
2019-02-20T00:24:02.350Z,28.40
2019-02-20T00:26:30.876Z,24.25
2019-02-20T00:28:59.420Z,20.32
2019-02-20T00:31:28.046Z,21.42
2019-02-20T00:33:56.946Z,23.70
2019-02-20T00:36:25.599Z,25.55
2019-02-20T00:38:54.105Z,19.77
2019-02-20T00:41:22.798Z,19.95
2019-02-20T00:43:53.163Z,22.17
2019-02-20T00:46:23.316Z,20.08
2019-02-20T00:48:53.490Z,16.90
2019-02-20T00:51:38.962Z,22.07
2019-02-20T00:54:09.388Z,15.55
2019-02-20T00:56:38.332Z,23.05
2019-02-20T00:59:06.954Z,18.25
2019-02-20T01:01:35.676Z,19.12
2019-02-20T01:04:04.866Z,19.90
2019-02-20T01:06:34.506Z,17.10
2019-02-20T01:09:03.415Z,20.75
2019-02-20T01:11:33.576Z,14.98
2019-02-20T01:14:02.504Z,19.70
2019-02-20T01:16:31.171Z,21.77
2019-02-20T01:18:59.962Z,17.82
2019-02-20T01:21:28.553Z,20.68
2019-02-20T01:23:57.438Z,14.93
2019-02-20T01:26:26.013Z,18.35
2019-02-20T01:28:54.687Z,14.00
2019-02-20T01:31:23.459Z,13.25
2019-02-20T01:33:52.005Z,16.05
2019-02-20T01:36:20.617Z,16.25
2019-02-20T01:38:49.214Z,15.08
2019-02-20T01:41:17.979Z,19.90
2019-02-20T01:43:46.780Z,22.17
2019-02-20T01:46:15.376Z,15.30
2019-02-20T01:48:43.997Z,20.00
2019-02-20T01:51:12.577Z,14.03
2019-02-20T01:53:41.405Z,15.60
2019-02-20T01:56:10.201Z,15.45
2019-02-20T01:58:38.647Z,19.85
2019-02-20T02:01:07.152Z,17.07
2019-02-20T02:03:35.952Z,15.90
2019-02-20T02:06:04.540Z,16.90
2019-02-20T02:08:33.253Z,14.47
2019-02-20T02:11:01.827Z,14.98
2019-02-20T02:13:31.079Z,13.20
2019-02-20T02:15:59.918Z,16.05
2019-02-20T02:18:28.746Z,16.42
2019-02-20T02:20:57.458Z,15.43
2019-02-20T02:23:25.985Z,15.28
2019-02-20T02:25:54.739Z,12.18
2019-02-20T02:28:23.358Z,16.00
2019-02-20T02:30:52.227Z,11.53
2019-02-20T02:33:20.845Z,12.50
2019-02-20T02:35:49.515Z,15.18
2019-02-20T02:38:17.995Z,12.10
2019-02-20T02:40:46.826Z,11.08
2019-02-20T02:43:15.716Z,11.50
2019-02-20T02:45:45.598Z,13.40
2019-02-20T02:48:14.145Z,14.15
2019-02-20T02:50:42.941Z,11.65
2019-02-20T02:53:11.487Z,10.70
2019-02-20T02:55:40.146Z,10.18
2019-02-20T02:58:08.903Z,15.10
2019-02-20T03:00:37.477Z,9.15
2019-02-20T03:03:06.304Z,10.38
2019-02-20T03:05:35.145Z,9.68
2019-02-20T03:08:03.740Z,13.35
2019-02-20T03:10:32.610Z,10.45
2019-02-20T03:13:01.284Z,10.58
2019-02-20T03:15:30.293Z,10.68
2019-02-20T03:17:59.238Z,8.73
2019-02-20T03:20:27.947Z,11.75
2019-02-20T03:22:56.765Z,10.38
2019-02-20T03:25:25.511Z,11.05
2019-02-20T03:27:54.343Z,10.90
2019-02-20T03:30:23.346Z,12.58
2019-02-20T03:32:51.989Z,10.30
2019-02-20T03:35:20.607Z,9.60
2019-02-20T03:37:49.217Z,13.78
2019-02-20T03:40:17.720Z,12.23
2019-02-20T03:42:46.642Z,12.30
2019-02-20T03:45:15.475Z,12.18
2019-02-20T03:47:44.097Z,11.93
2019-02-20T03:50:12.890Z,11.83
2019-02-20T03:52:41.695Z,13.25
2019-02-20T03:55:10.368Z,11.43
2019-02-20T03:57:38.909Z,13.40
2019-02-20T04:00:09.054Z,10.98
2019-02-20T04:02:37.721Z,16.52
2019-02-20T04:05:06.555Z,17.05
2019-02-20T04:07:35.287Z,15.80
2019-02-20T04:10:04.366Z,11.45
2019-02-20T04:12:33.128Z,11.63
2019-02-20T04:15:01.712Z,12.88
2019-02-20T04:17:30.291Z,16.77
2019-02-20T04:19:58.960Z,14.73
2019-02-20T04:22:27.697Z,14.28
2019-02-20T04:24:57.332Z,14.13
2019-02-20T04:27:25.830Z,10.90
2019-02-20T04:29:54.747Z,14.58
2019-02-20T04:32:23.519Z,11.28
2019-02-20T04:34:52.023Z,13.05
2019-02-20T04:37:20.773Z,13.72
2019-02-20T04:39:49.418Z,15.48
2019-02-20T04:42:18.039Z,18.42
2019-02-20T04:44:46.717Z,17.15
2019-02-20T04:47:15.400Z,17.70
2019-02-20T04:49:44.302Z,20.50
2019-02-20T04:52:13.006Z,14.07
2019-02-20T04:54:41.786Z,15.20
2019-02-20T04:57:10.667Z,16.70
2019-02-20T04:59:39.709Z,17.42
2019-02-20T05:02:08.350Z,17.82
2019-02-20T05:04:36.810Z,16.50
2019-02-20T05:07:05.649Z,16.62
2019-02-20T05:09:34.267Z,14.85
2019-02-20T05:12:03.066Z,16.35
2019-02-20T05:14:31.700Z,17.92
2019-02-20T05:17:00.371Z,15.63
2019-02-20T05:19:29.048Z,17.57
2019-02-20T05:21:57.980Z,16.25
2019-02-20T05:24:27.001Z,16.52
2019-02-20T05:26:55.658Z,17.95
2019-02-20T05:29:24.234Z,16.50
2019-02-20T05:31:52.811Z,21.07
2019-02-20T05:34:21.597Z,16.93
2019-02-20T05:36:50.197Z,18.07
2019-02-20T05:39:19.016Z,20.90
2019-02-20T05:41:47.736Z,14.10
2019-02-20T05:44:16.478Z,17.73
2019-02-20T05:46:45.509Z,18.35
2019-02-20T05:49:14.285Z,14.53
2019-02-20T05:51:44.276Z,15.63
2019-02-20T05:54:12.971Z,19.00
2019-02-20T05:56:41.556Z,19.17
2019-02-20T05:59:10.025Z,24.30
2019-02-20T06:01:39.500Z,19.65
2019-02-20T06:04:08.394Z,20.25
2019-02-20T06:06:37.134Z,17.65
2019-02-20T06:09:05.760Z,11.45
2019-02-20T06:11:34.799Z,13.18
2019-02-20T06:14:03.749Z,10.82
2019-02-20T06:16:32.237Z,10.75
2019-02-20T06:19:01.040Z,11.73
2019-02-20T06:21:29.915Z,10.15
2019-02-20T06:23:58.516Z,13.72
2019-02-20T06:26:27.024Z,13.03
2019-02-20T06:28:55.588Z,13.72
2019-02-20T06:31:25.460Z,14.58
2019-02-20T06:33:54.064Z,17.30
2019-02-20T06:36:22.618Z,24.00
2019-02-20T06:38:51.501Z,21.12
2019-02-20T06:41:20.408Z,19.82
2019-02-20T06:43:49.113Z,17.98
2019-02-20T06:46:17.933Z,16.82
2019-02-20T06:48:46.496Z,14.65
2019-02-20T06:51:16.096Z,15.68
2019-02-20T06:53:44.661Z,16.62
2019-02-20T06:56:13.402Z,22.32
2019-02-20T06:58:42.053Z,22.22
2019-02-20T07:01:10.864Z,23.42
2019-02-20T07:03:39.517Z,22.82
2019-02-20T07:06:27.955Z,25.35
2019-02-20T07:09:15.333Z,24.95
2019-02-20T07:11:52.835Z,24.07
2019-02-20T07:14:23.135Z,25.48
2019-02-20T07:17:10.177Z,23.18
2019-02-20T07:19:45.872Z,25.45
2019-02-20T07:22:16.397Z,29.35
2019-02-20T07:24:46.679Z,22.32
2019-02-20T07:27:17.040Z,29.12
2019-02-20T07:29:47.346Z,20.17
2019-02-20T07:32:17.226Z,23.30
2019-02-20T07:34:45.877Z,19.82
2019-02-20T07:37:14.689Z,17.90
2019-02-20T07:39:43.260Z,20.90
2019-02-20T07:42:11.962Z,17.45
2019-02-20T07:44:40.521Z,19.85
2019-02-20T07:47:10.555Z,25.20
2019-02-20T07:49:39.057Z,17.42
2019-02-20T07:52:09.377Z,13.60
2019-02-20T07:54:38.337Z,17.92
2019-02-20T07:57:06.879Z,18.32
2019-02-20T07:59:35.351Z,17.65
2019-02-20T08:02:04.220Z,20.10
2019-02-20T08:04:33.179Z,15.08
2019-02-20T08:07:01.632Z,16.62
2019-02-20T08:09:30.173Z,15.55
2019-02-20T08:11:58.780Z,17.05
2019-02-20T08:14:27.565Z,14.00
2019-02-20T08:16:56.590Z,14.70
2019-02-20T08:19:25.333Z,11.90
2019-02-20T08:21:54.108Z,15.80
2019-02-20T08:24:22.672Z,11.57
2019-02-20T08:26:51.458Z,14.13
2019-02-20T08:29:20.290Z,14.03
2019-02-20T08:31:49.112Z,12.55
2019-02-20T08:34:17.722Z,10.78
2019-02-20T08:36:46.291Z,11.68
2019-02-20T08:39:14.995Z,13.10
2019-02-20T08:41:43.903Z,12.35
2019-02-20T08:44:13.821Z,13.43
2019-02-20T08:46:43.901Z,9.40
2019-02-20T08:49:12.531Z,10.98
2019-02-20T08:51:41.120Z,8.40
2019-02-20T08:54:09.969Z,12.45
2019-02-20T08:56:38.469Z,9.08
2019-02-20T08:59:07.343Z,9.28
2019-02-20T09:01:36.177Z,7.70
2019-02-20T09:04:04.844Z,6.97
2019-02-20T09:06:33.731Z,9.43
2019-02-20T09:09:02.711Z,8.53
2019-02-20T09:11:32.838Z,9.28
2019-02-20T09:14:01.957Z,7.83
2019-02-20T09:16:30.757Z,10.75
2019-02-20T09:18:59.288Z,9.08
2019-02-20T09:21:28.041Z,5.95
2019-02-20T09:23:56.797Z,8.05
2019-02-20T09:26:25.514Z,8.45
2019-02-20T09:28:54.335Z,7.78
2019-02-20T09:31:22.951Z,6.55
2019-02-20T09:33:51.749Z,8.88
2019-02-20T09:36:20.672Z,7.80
2019-02-20T09:38:49.549Z,6.92
2019-02-20T09:41:18.279Z,7.58
2019-02-20T09:43:47.078Z,7.83
2019-02-20T09:46:15.838Z,4.65
2019-02-20T09:48:45.663Z,7.20
2019-02-20T09:51:15.585Z,8.43
2019-02-20T09:53:44.344Z,7.97
2019-02-20T09:56:13.246Z,10.05
2019-02-20T09:58:41.747Z,6.47
2019-02-20T10:01:10.450Z,9.43
2019-02-20T10:03:38.949Z,11.80
2019-02-20T10:06:07.785Z,12.75
2019-02-20T10:08:36.477Z,8.30
2019-02-20T10:11:05.118Z,11.65
2019-02-20T10:13:33.612Z,8.28
2019-02-20T10:16:02.204Z,5.58
2019-02-20T10:18:31.214Z,5.12
2019-02-20T10:20:59.886Z,6.78
2019-02-20T10:23:28.721Z,6.47
2019-02-20T10:26:00.807Z,10.38
2019-02-20T10:28:27.487Z,5.53
2019-02-20T10:30:56.088Z,5.92
2019-02-20T10:33:25.218Z,4.97
2019-02-20T10:35:53.996Z,6.20
2019-02-20T10:38:22.623Z,10.15
2019-02-20T10:40:51.475Z,4.87
2019-02-20T10:43:20.004Z,14.10
2019-02-20T10:45:51.706Z,5.55
2019-02-20T10:48:20.474Z,5.45
2019-02-20T10:50:49.035Z,7.12
2019-02-20T10:53:17.539Z,9.08
2019-02-20T10:55:46.262Z,13.08
2019-02-20T10:58:15.024Z,8.15
2019-02-20T11:00:44.037Z,7.47
2019-02-20T11:03:12.794Z,6.00
2019-02-20T11:05:41.334Z,10.20
2019-02-20T11:08:11.189Z,6.45
2019-02-20T11:10:40.004Z,8.05
2019-02-20T11:13:08.614Z,9.85
2019-02-20T11:15:37.217Z,7.42
2019-02-20T11:18:05.836Z,9.63
2019-02-20T11:20:34.853Z,6.35
2019-02-20T11:23:03.728Z,7.85
2019-02-20T11:25:32.767Z,7.92
2019-02-20T11:28:01.273Z,9.80
2019-02-20T11:30:30.094Z,9.08
2019-02-20T11:32:58.608Z,9.58
2019-02-20T11:35:27.538Z,12.43
2019-02-20T11:37:56.406Z,6.28
2019-02-20T11:40:25.345Z,12.80
2019-02-20T11:42:54.019Z,10.50
2019-02-20T11:45:22.544Z,8.58
2019-02-20T11:47:51.285Z,11.12
2019-02-20T11:50:19.999Z,8.05
2019-02-20T11:52:48.791Z,11.12
2019-02-20T11:55:17.536Z,7.87
2019-02-20T11:57:46.471Z,8.78
2019-02-20T12:00:16.724Z,6.67
2019-02-20T12:02:45.539Z,7.45
2019-02-20T12:05:14.232Z,10.03
2019-02-20T12:07:43.524Z,9.53
2019-02-20T12:10:13.249Z,10.38
2019-02-20T12:12:42.204Z,8.20
2019-02-20T12:15:11.765Z,10.25
2019-02-20T12:17:40.734Z,8.60
2019-02-20T12:20:09.853Z,11.88
2019-02-20T12:22:38.889Z,11.45
2019-02-20T12:25:11.089Z,9.88
2019-02-20T12:27:40.400Z,7.58
2019-02-20T12:30:12.696Z,7.92
2019-02-20T12:32:41.736Z,6.50
2019-02-20T12:35:10.793Z,8.25
2019-02-20T12:37:39.650Z,7.62
2019-02-20T12:40:09.262Z,7.92
2019-02-20T12:42:38.158Z,7.90
2019-02-20T12:45:08.839Z,6.75
2019-02-20T12:47:37.868Z,6.97
2019-02-20T12:50:07.848Z,10.30
2019-02-20T12:52:36.648Z,6.30
2019-02-20T12:55:17.729Z,7.22
2019-02-20T12:57:47.026Z,7.37
2019-02-20T13:00:17.389Z,8.55
2019-02-20T13:02:46.397Z,8.48
2019-02-20T13:05:15.245Z,10.65
2019-02-20T13:07:44.560Z,13.45
2019-02-20T13:10:13.597Z,9.10
2019-02-20T13:12:42.640Z,10.95
2019-02-20T13:15:12.073Z,7.67
2019-02-20T13:17:41.156Z,7.67
2019-02-20T13:20:12.720Z,10.85
2019-02-20T13:22:41.647Z,7.55
2019-02-20T13:25:10.355Z,14.03
2019-02-20T13:27:40.227Z,11.40
2019-02-20T13:30:13.013Z,11.48
2019-02-20T13:32:41.726Z,10.35
2019-02-20T13:35:10.605Z,12.90
2019-02-20T13:37:39.597Z,14.23
2019-02-20T13:40:09.641Z,23.35
2019-02-20T13:42:38.590Z,21.68
2019-02-20T13:45:08.243Z,11.33
2019-02-20T13:47:37.020Z,9.55
2019-02-20T13:50:07.559Z,10.90
2019-02-20T13:52:36.197Z,11.90
2019-02-20T13:55:06.317Z,11.73
2019-02-20T13:57:35.399Z,12.53
2019-02-20T14:00:05.101Z,12.00
2019-02-20T14:02:35.375Z,12.73
2019-02-20T14:05:04.528Z,8.83
2019-02-20T14:07:33.470Z,10.80
2019-02-20T14:10:02.620Z,18.60
2019-02-20T14:12:32.731Z,15.03
2019-02-20T14:15:01.594Z,11.22
2019-02-20T14:17:31.545Z,14.05
2019-02-20T14:20:00.321Z,15.90
2019-02-20T14:22:29.326Z,31.62
2019-02-20T14:24:58.644Z,15.23
2019-02-20T14:27:34.559Z,21.50
2019-02-20T14:30:05.479Z,14.73
2019-02-20T14:32:35.650Z,14.73
2019-02-20T14:35:05.311Z,20.72
2019-02-20T14:37:33.856Z,17.52
2019-02-20T14:40:02.790Z,19.30
2019-02-20T14:42:32.667Z,16.05
2019-02-20T14:45:01.207Z,22.25
2019-02-20T14:47:30.917Z,15.03
2019-02-20T14:49:59.634Z,16.73
2019-02-20T14:52:29.225Z,14.00
2019-02-20T14:54:58.193Z,12.68
2019-02-20T14:57:26.798Z,19.10
2019-02-20T14:59:55.410Z,19.57
2019-02-20T15:02:24.128Z,16.27
2019-02-20T15:04:52.940Z,14.38
2019-02-20T15:07:21.570Z,12.85
2019-02-20T15:09:50.452Z,13.25
2019-02-20T15:12:19.008Z,11.97
2019-02-20T15:14:47.738Z,15.60
2019-02-20T15:17:17.564Z,14.75
2019-02-20T15:19:46.245Z,16.93
2019-02-20T15:22:15.045Z,17.87
2019-02-20T15:24:43.797Z,17.65
2019-02-20T15:27:12.813Z,15.98
2019-02-20T15:29:43.665Z,16.20
2019-02-20T15:32:13.706Z,14.87
2019-02-20T15:34:42.495Z,18.15
2019-02-20T15:37:11.257Z,19.17
2019-02-20T15:39:40.032Z,19.45
2019-02-20T15:42:09.132Z,18.07
2019-02-20T15:44:38.005Z,17.25
2019-02-20T15:47:07.018Z,16.75
2019-02-20T15:49:35.706Z,19.02
2019-02-20T15:52:04.850Z,20.85
2019-02-20T15:54:33.400Z,22.58
2019-02-20T15:57:02.134Z,19.55
2019-02-20T15:59:31.184Z,21.65
2019-02-20T16:01:59.976Z,16.57
2019-02-20T16:04:28.773Z,17.57
2019-02-20T16:06:57.456Z,16.55
2019-02-20T16:09:26.194Z,20.10
2019-02-20T16:11:55.018Z,13.60
2019-02-20T16:14:23.718Z,13.05
2019-02-20T16:16:52.339Z,14.73
2019-02-20T16:19:21.039Z,13.68
2019-02-20T16:21:49.741Z,13.93
2019-02-20T16:24:18.357Z,11.78
2019-02-20T16:26:47.241Z,9.68
2019-02-20T16:29:15.947Z,14.58
2019-02-20T16:31:44.986Z,11.45
2019-02-20T16:34:13.824Z,13.32
2019-02-20T16:36:42.521Z,13.08
2019-02-20T16:39:11.428Z,17.80
2019-02-20T16:41:40.359Z,18.35
2019-02-20T16:44:10.175Z,17.45
2019-02-20T16:46:38.984Z,18.87
2019-02-20T16:49:07.905Z,13.70
2019-02-20T16:51:36.597Z,20.05
2019-02-20T16:54:05.566Z,23.65
2019-02-20T16:56:34.176Z,21.97
2019-02-20T16:59:02.719Z,20.97
2019-02-20T17:01:31.727Z,21.52
2019-02-20T17:04:00.634Z,18.48
2019-02-20T17:06:29.937Z,17.62
2019-02-20T17:09:00.514Z,15.85
2019-02-20T17:11:30.700Z,18.15
2019-02-20T17:13:59.467Z,30.62
2019-02-20T17:16:28.594Z,23.12
2019-02-20T17:18:59.742Z,23.77
2019-02-20T17:21:28.091Z,22.17
2019-02-20T17:23:56.795Z,19.75
2019-02-20T17:26:25.431Z,43.23
2019-02-20T17:28:54.191Z,26.35
2019-02-20T17:31:23.387Z,19.35
2019-02-20T17:33:52.125Z,15.78
2019-02-20T17:36:20.983Z,16.42
2019-02-20T17:38:51.235Z,17.00
2019-02-20T17:41:20.058Z,16.90
2019-02-20T17:43:49.017Z,14.58
2019-02-20T17:46:18.853Z,18.82
2019-02-20T17:48:48.510Z,12.78
2019-02-20T17:51:17.407Z,17.00
2019-02-20T17:53:46.462Z,21.15
2019-02-20T17:56:15.130Z,19.27
2019-02-20T17:58:44.009Z,16.50
2019-02-20T18:01:15.785Z,17.07
2019-02-20T18:03:44.550Z,20.20
2019-02-20T18:06:13.170Z,16.70
2019-02-20T18:08:41.906Z,24.00
2019-02-20T18:11:10.618Z,18.67
2019-02-20T18:13:39.531Z,22.67
2019-02-20T18:16:08.388Z,31.55
2019-02-20T18:18:37.399Z,28.20
2019-02-20T18:21:06.059Z,25.75
2019-02-20T18:23:35.015Z,20.15
2019-02-20T18:26:03.936Z,19.75
2019-02-20T18:28:32.690Z,22.05
2019-02-20T18:31:01.397Z,53.75
2019-02-20T18:33:30.046Z,56.05
2019-02-20T18:35:58.778Z,43.63
2019-02-20T18:38:27.425Z,43.78
2019-02-20T18:40:56.379Z,63.63
2019-02-20T18:43:25.047Z,36.42
2019-02-20T18:45:54.026Z,20.70
2019-02-20T18:48:23.850Z,22.35
2019-02-20T18:50:52.730Z,19.65
2019-02-20T18:53:21.559Z,24.63
2019-02-20T18:55:50.277Z,24.95
2019-02-20T18:58:19.273Z,28.47
2019-02-20T19:00:48.233Z,27.22
2019-02-20T19:03:18.072Z,35.20
2019-02-20T19:05:47.476Z,43.17
2019-02-20T19:08:29.887Z,49.40
2019-02-20T19:11:00.162Z,68.75
2019-02-20T19:13:30.186Z,68.30
2019-02-20T19:16:15.773Z,72.67
2019-02-20T19:18:49.004Z,154.18
2019-02-20T19:21:20.349Z,98.47
2019-02-20T19:23:59.458Z,119.75
2019-02-20T19:26:29.613Z,103.70
2019-02-20T19:29:17.070Z,95.33
2019-02-20T19:31:56.214Z,227.78
2019-02-20T19:34:26.677Z,110.50
2019-02-20T19:36:59.745Z,336.52
2019-02-20T19:39:30.073Z,141.22
2019-02-20T19:42:18.667Z,145.35
2019-02-20T19:44:54.927Z,54.53
2019-02-20T19:47:25.370Z,62.38
2019-02-20T19:49:59.758Z,94.32
2019-02-20T19:52:32.357Z,71.12
2019-02-20T19:55:10.634Z,59.60
2019-02-20T19:57:46.589Z,86.00
2019-02-20T20:00:33.597Z,53.80
2019-02-20T20:03:03.994Z,49.58
2019-02-20T20:05:37.183Z,54.03
2019-02-20T20:08:16.351Z,74.62
2019-02-20T20:11:05.537Z,76.95
2019-02-20T20:13:48.047Z,62.03
2019-02-20T20:16:30.521Z,67.62
2019-02-20T20:19:06.443Z,80.35
2019-02-20T20:21:36.741Z,59.18
2019-02-20T20:24:15.902Z,49.53
2019-02-20T20:27:01.101Z,40.92
2019-02-20T20:29:43.896Z,35.03
2019-02-20T20:32:17.139Z,38.35
2019-02-20T20:34:47.480Z,43.30
2019-02-20T20:37:20.517Z,47.70
2019-02-20T20:39:50.953Z,41.40
2019-02-20T20:42:21.043Z,40.90
2019-02-20T20:45:07.996Z,47.08
2019-02-20T20:47:46.964Z,69.45
2019-02-20T20:50:34.792Z,68.15
2019-02-20T20:53:04.919Z,64.62
2019-02-20T20:55:41.444Z,63.00
2019-02-20T20:58:14.234Z,58.38
2019-02-20T21:00:54.009Z,51.10
2019-02-20T21:03:24.147Z,56.60
2019-02-20T21:06:00.362Z,48.42
2019-02-20T21:08:30.427Z,55.20
2019-02-20T21:11:16.203Z,48.75
2019-02-20T21:13:52.146Z,49.60
2019-02-20T21:16:31.543Z,52.30
2019-02-20T21:19:01.699Z,43.40
2019-02-20T21:21:36.314Z,55.13
2019-02-20T21:24:06.468Z,62.25
2019-02-20T21:26:43.679Z,57.45
2019-02-20T21:29:30.623Z,58.87
2019-02-20T21:32:03.445Z,58.23
2019-02-20T21:34:39.334Z,57.35
2019-02-20T21:37:27.846Z,54.20
2019-02-20T21:39:58.094Z,58.98
2019-02-20T21:42:34.527Z,66.28
2019-02-20T21:45:07.535Z,100.95
2019-02-20T21:47:50.146Z,97.82
2019-02-20T21:52:48.344Z,72.42
2019-02-20T21:55:25.600Z,63.13
2019-02-20T21:57:55.726Z,56.15
2019-02-20T22:00:31.658Z,75.12
2019-02-20T22:03:04.534Z,81.57
2019-02-20T22:05:34.729Z,75.87
2019-02-20T22:08:07.699Z,64.42
2019-02-20T22:10:50.447Z,65.75
2019-02-20T22:13:23.319Z,57.27
2019-02-20T22:15:53.693Z,54.40
2019-02-20T22:18:40.248Z,63.65
2019-02-20T22:21:10.665Z,57.70
2019-02-20T22:23:50.309Z,82.33
2019-02-20T22:26:38.687Z,67.10
2019-02-20T22:29:11.996Z,81.45
2019-02-20T22:31:51.527Z,67.10
2019-02-20T22:34:33.804Z,71.97
2019-02-20T22:37:21.185Z,73.40
2019-02-20T22:39:57.714Z,77.20
2019-02-20T22:42:30.601Z,79.65
2019-02-20T22:45:12.674Z,80.83
2019-02-20T22:47:59.506Z,86.60
2019-02-20T22:50:33.762Z,91.02
2019-02-20T22:53:10.090Z,116.12
2019-02-20T22:55:43.314Z,93.80
2019-02-20T22:58:24.211Z,77.58
2019-02-20T23:01:00.474Z,77.90
2019-02-20T23:03:31.574Z,84.13
2019-02-20T23:06:13.997Z,81.87
2019-02-20T23:08:44.106Z,75.90
2019-02-20T23:11:14.503Z,77.92
2019-02-20T23:13:56.350Z,90.75
2019-02-20T23:16:25.065Z,78.30
2019-02-20T23:18:53.656Z,81.97
2019-02-20T23:21:22.636Z,93.45
2019-02-20T23:23:51.586Z,111.52
2019-02-20T23:26:20.396Z,91.37
2019-02-20T23:28:50.420Z,101.85
2019-02-20T23:31:19.186Z,108.55
2019-02-20T23:33:48.007Z,104.07
2019-02-20T23:36:16.914Z,132.67
2019-02-20T23:38:45.888Z,99.22
2019-02-20T23:41:14.690Z,97.00
2019-02-20T23:43:43.395Z,123.00
2019-02-20T23:46:12.037Z,117.75
2019-02-20T23:48:40.945Z,169.32
2019-02-20T23:51:10.134Z,159.80
2019-02-20T23:53:38.784Z,159.50
2019-02-20T23:56:07.598Z,182.05
2019-02-20T23:58:36.301Z,219.10
